Val-Barrette, Canada
Current Conditions -  °F | °C
As of 6:00 PM on Monday 24 Nov 2014 (Local Time) from CYND Reporting Station
Overcast Overcast  
Wind Chill: 59°   Ceiling: 3500
Heat Index: 59°   Visibility: 15mi
Dew Point: 50°   Wind: 21mph
Humidity: 72%   Direction: 220°SW
Pressure: 29.25"   Gusts: 38mph
Location:  46.52°N, 75.35°W
Report Text: CYND 242300Z 22018G33KT 15SM BKN035 OVC060 15/10 A2925 RMK SC5SC3 PRESRR SLP907 DENSITY ALT 1000FT
Loading
Personal Weather Stations






























Interactive Weather Map New forecast layout! Learn more

10-Day Weather Forecast

Advertisements
Track Severe Weather on mobile